Time;durP1;ratioP1;P1;durP2;ratioP2;P2;SDS_P1;SDS_P2;PMS_P1;PMS_P2;Temp;Humidity;BMP_temperature;BMP_pressure;BME280_temperature;BME280_humidity;BME280_pressure;Samples;Min_cycle;Max_cycle;Signal;HPM_P1;HPM_P2
2023/03/20 00:02:23;;;;;;;1.00;0.90;;;;;;;;;;4947454;28;20576;-83
2023/03/20 00:04:49;;;;;;;0.55;0.55;;;;;;;;;;4947853;28;20040;-83
2023/03/20 00:07:14;;;;;;;0.75;0.75;;;;;;;;;;4946511;28;20129;-84
2023/03/20 00:09:41;;;;;;;0.73;0.70;;;;;;;;;;4963266;28;20062;-84
2023/03/20 00:12:17;;;;;;;0.80;0.80;;;;;;;;;;4945354;28;20026;-83
2023/03/20 00:14:42;;;;;;;0.60;0.60;;;;;;;;;;4963576;28;20026;-85
2023/03/20 00:17:16;;;;;;;0.60;0.60;;;;;;;;;;4964948;28;20034;-84
2023/03/20 00:19:42;;;;;;;0.75;0.75;;;;;;;;;;4965291;28;20165;-86
2023/03/20 00:22:07;;;;;;;1.25;0.80;;;;;;;;;;4963095;28;20114;-83
2023/03/20 00:24:33;;;;;;;0.80;0.63;;;;;;;;;;4960433;28;21145;-84
2023/03/20 00:26:58;;;;;;;0.57;0.57;;;;;;;;;;4944446;28;20153;-84
2023/03/20 00:29:25;;;;;;;0.65;0.65;;;;;;;;;;4961308;28;20061;-86
2023/03/20 00:31:52;;;;;;;1.20;1.02;;;;;;;;;;4961075;28;20034;-85
2023/03/20 00:34:21;;;;;;;0.63;0.63;;;;;;;;;;4958877;28;20046;-85
2023/03/20 00:36:47;;;;;;;0.80;0.80;;;;;;;;;;4945829;28;20038;-85
2023/03/20 00:39:12;;;;;;;2.47;1.05;;;;;;;;;;4965288;28;20027;-84
2023/03/20 00:41:37;;;;;;;1.20;1.10;;;;;;;;;;4944460;28;20038;-85
2023/03/20 00:44:12;;;;;;;1.88;1.27;;;;;;;;;;4948554;28;20039;-85
2023/03/20 00:46:38;;;;;;;1.80;1.30;;;;;;;;;;4966554;28;20553;-85
2023/03/20 00:49:04;;;;;;;2.53;1.20;;;;;;;;;;4961875;28;20027;-84
2023/03/20 00:51:29;;;;;;;2.75;1.33;;;;;;;;;;4967795;28;20850;-85
2023/03/20 00:53:55;;;;;;;1.20;1.15;;;;;;;;;;4967671;28;20126;-84
2023/03/20 00:56:33;;;;;;;1.80;1.70;;;;;;;;;;4964811;28;20081;-84
2023/03/20 00:59:00;;;;;;;1.83;1.65;;;;;;;;;;4949884;28;20034;-83
2023/03/20 01:01:27;;;;;;;1.65;1.55;;;;;;;;;;4969734;28;20026;-85
2023/03/20 01:03:52;;;;;;;1.38;1.27;;;;;;;;;;4969940;28;20050;-84
2023/03/20 01:06:17;;;;;;;2.45;1.48;;;;;;;;;;4969662;28;20068;-83
2023/03/20 01:08:43;;;;;;;1.45;1.27;;;;;;;;;;4954314;28;20046;-83
2023/03/20 01:11:11;;;;;;;2.13;1.75;;;;;;;;;;4968787;28;20034;-83
2023/03/20 01:13:38;;;;;;;1.50;1.40;;;;;;;;;;4971455;28;20026;-83
2023/03/20 01:16:04;;;;;;;2.88;1.40;;;;;;;;;;4970953;28;20030;-85
2023/03/20 01:18:30;;;;;;;1.73;1.63;;;;;;;;;;4977755;28;20034;-83
2023/03/20 01:20:55;;;;;;;2.25;1.70;;;;;;;;;;4980632;28;20062;-84
2023/03/20 01:23:25;;;;;;;2.58;1.70;;;;;;;;;;4964503;28;20046;-83
2023/03/20 01:25:51;;;;;;;1.45;1.30;;;;;;;;;;4981895;28;20022;-85
2023/03/20 01:28:19;;;;;;;1.73;1.35;;;;;;;;;;4981967;28;20484;-85
2023/03/20 01:30:45;;;;;;;3.50;1.50;;;;;;;;;;4982998;28;20027;-85
2023/03/20 01:33:15;;;;;;;1.30;1.20;;;;;;;;;;4975273;28;20090;-84
2023/03/20 01:35:41;;;;;;;1.52;1.42;;;;;;;;;;4997895;28;20034;-84
2023/03/20 01:38:36;;;;;;;2.03;1.48;;;;;;;;;;4975763;28;20064;-85
2023/03/20 01:41:15;;;;;;;1.50;1.40;;;;;;;;;;4968242;28;20022;-86
2023/03/20 01:43:41;;;;;;;3.05;1.80;;;;;;;;;;4987590;28;20720;-83
2023/03/20 01:46:10;;;;;;;1.85;1.48;;;;;;;;;;4989623;28;21098;-84
2023/03/20 01:48:54;;;;;;;1.98;1.48;;;;;;;;;;4981622;28;20060;-83
2023/03/20 01:51:25;;;;;;;1.30;1.20;;;;;;;;;;4988888;28;20101;-86
2023/03/20 01:54:00;;;;;;;3.67;1.60;;;;;;;;;;4986801;28;20113;-86
2023/03/20 01:56:29;;;;;;;2.15;1.70;;;;;;;;;;4985373;28;20034;-85
2023/03/20 01:59:02;;;;;;;4.60;1.65;;;;;;;;;;4967461;28;20073;-84
2023/03/20 02:01:29;;;;;;;2.40;1.60;;;;;;;;;;4967791;28;21453;-83
2023/03/20 02:03:55;;;;;;;1.77;1.67;;;;;;;;;;4986035;28;20035;-84
2023/03/20 02:06:22;;;;;;;2.55;1.90;;;;;;;;;;4983183;28;20037;-85
2023/03/20 02:08:50;;;;;;;2.40;2.10;;;;;;;;;;4984929;28;20022;-84
2023/03/20 02:11:18;;;;;;;1.90;1.60;;;;;;;;;;4988320;28;20576;-85
2023/03/20 02:13:44;;;;;;;2.83;2.15;;;;;;;;;;4989478;28;20046;-83
2023/03/20 02:16:11;;;;;;;1.73;1.60;;;;;;;;;;4986052;28;20018;-84
2023/03/20 02:18:39;;;;;;;2.25;1.70;;;;;;;;;;4987495;28;20034;-85
2023/03/20 02:21:22;;;;;;;1.55;1.30;;;;;;;;;;4988279;28;20030;-84
2023/03/20 02:23:53;;;;;;;1.30;1.20;;;;;;;;;;4979816;28;20073;-84
2023/03/20 02:26:40;;;;;;;2.25;1.10;;;;;;;;;;4990329;28;20036;-85
2023/03/20 02:29:20;;;;;;;1.45;1.30;;;;;;;;;;4987006;28;20377;-84
2023/03/20 02:32:07;;;;;;;0.82;0.82;;;;;;;;;;4989142;28;20022;-84
2023/03/20 02:34:44;;;;;;;1.52;1.42;;;;;;;;;;4991637;28;20038;-85
2023/03/20 02:37:22;;;;;;;0.82;0.80;;;;;;;;;;4970165;28;20377;-85
2023/03/20 02:40:14;;;;;;;1.00;0.95;;;;;;;;;;4962830;28;20034;-85
2023/03/20 02:43:08;;;;;;;1.05;0.98;;;;;;;;;;4985552;28;20189;-85
2023/03/20 02:45:57;;;;;;;0.88;0.82;;;;;;;;;;4985490;28;20030;-84
2023/03/20 02:48:50;;;;;;;1.02;1.00;;;;;;;;;;4952569;28;20065;-85
2023/03/20 02:51:29;;;;;;;0.60;0.60;;;;;;;;;;4979749;28;20025;-84
2023/03/20 02:54:10;;;;;;;0.90;0.90;;;;;;;;;;4966769;28;20105;-83
2023/03/20 02:57:10;;;;;;;2.10;0.68;;;;;;;;;;4986751;28;20026;-86
2023/03/20 03:00:14;;;;;;;0.95;0.90;;;;;;;;;;4962502;28;20030;-85
2023/03/20 03:03:00;;;;;;;0.85;0.85;;;;;;;;;;4925422;29;20720;-86
2023/03/20 03:05:34;;;;;;;1.25;0.77;;;;;;;;;;4983278;28;20046;-83
2023/03/20 03:08:02;;;;;;;0.50;0.50;;;;;;;;;;4970288;28;20026;-83
2023/03/20 03:10:30;;;;;;;1.50;0.82;;;;;;;;;;4988617;28;20025;-84
2023/03/20 03:12:59;;;;;;;0.95;0.95;;;;;;;;;;4961966;28;20034;-85
2023/03/20 03:15:38;;;;;;;1.00;1.00;;;;;;;;;;4969846;28;20839;-85
2023/03/20 03:18:06;;;;;;;0.70;0.70;;;;;;;;;;4962843;28;20109;-84
2023/03/20 03:20:39;;;;;;;0.60;0.60;;;;;;;;;;4985602;28;20053;-84
2023/03/20 03:23:06;;;;;;;0.60;0.60;;;;;;;;;;4983542;28;20041;-84
2023/03/20 03:25:36;;;;;;;0.93;0.90;;;;;;;;;;4960241;28;20041;-84
2023/03/20 03:28:20;;;;;;;0.57;0.57;;;;;;;;;;4967367;28;20377;-84
2023/03/20 03:30:45;;;;;;;0.52;0.52;;;;;;;;;;4983357;28;20037;-84
2023/03/20 03:33:26;;;;;;;0.70;0.70;;;;;;;;;;4956686;28;20034;-84
2023/03/20 03:35:59;;;;;;;0.70;0.70;;;;;;;;;;4965512;28;20049;-83
2023/03/20 03:38:36;;;;;;;1.08;0.75;;;;;;;;;;4956525;28;20030;-84
2023/03/20 03:41:23;;;;;;;1.90;0.65;;;;;;;;;;4965779;28;20065;-83
2023/03/20 03:44:00;;;;;;;0.65;0.65;;;;;;;;;;4979078;28;20045;-82
2023/03/20 03:46:55;;;;;;;0.68;0.68;;;;;;;;;;4976019;28;20029;-82
2023/03/20 03:49:26;;;;;;;0.65;0.65;;;;;;;;;;4979256;28;20041;-84
2023/03/20 03:52:00;;;;;;;0.70;0.70;;;;;;;;;;4972264;28;20031;-82
2023/03/20 03:54:39;;;;;;;0.68;0.68;;;;;;;;;;4973412;28;20073;-84
2023/03/20 03:57:06;;;;;;;0.70;0.70;;;;;;;;;;4953127;28;20034;-83
2023/03/20 03:59:40;;;;;;;0.70;0.70;;;;;;;;;;4949751;28;20027;-84
2023/03/20 04:02:07;;;;;;;0.68;0.68;;;;;;;;;;4969298;28;20031;-83
2023/03/20 04:04:36;;;;;;;0.60;0.60;;;;;;;;;;4978700;28;20037;-83
2023/03/20 04:07:01;;;;;;;0.60;0.60;;;;;;;;;;4968122;28;20066;-87
2023/03/20 04:09:27;;;;;;;0.50;0.50;;;;;;;;;;4991078;28;20034;-85
2023/03/20 04:11:53;;;;;;;1.13;0.80;;;;;;;;;;4973809;28;20025;-86
2023/03/20 04:14:19;;;;;;;0.70;0.70;;;;;;;;;;4943774;28;21223;-86
2023/03/20 04:16:45;;;;;;;0.90;0.70;;;;;;;;;;4966799;28;20992;-84
2023/03/20 04:19:11;;;;;;;1.83;0.95;;;;;;;;;;4968301;28;20050;-85
2023/03/20 04:21:36;;;;;;;3.15;0.80;;;;;;;;;;4967683;28;20030;-87
2023/03/20 04:24:02;;;;;;;5.35;0.73;;;;;;;;;;4974742;28;20405;-85
2023/03/20 04:26:27;;;;;;;0.40;0.40;;;;;;;;;;4974982;28;20389;-84
2023/03/20 04:28:52;;;;;;;0.63;0.63;;;;;;;;;;4975295;28;20477;-86
2023/03/20 04:31:18;;;;;;;0.85;0.80;;;;;;;;;;4973216;28;20022;-86
2023/03/20 04:33:44;;;;;;;0.70;0.70;;;;;;;;;;4955390;28;20066;-83
2023/03/20 04:36:10;;;;;;;0.95;0.93;;;;;;;;;;4963718;28;20366;-85
2023/03/20 04:38:35;;;;;;;0.80;0.80;;;;;;;;;;4963039;28;20037;-84
2023/03/20 04:41:01;;;;;;;0.73;0.73;;;;;;;;;;4966624;28;20037;-85
2023/03/20 04:43:26;;;;;;;0.60;0.60;;;;;;;;;;4966645;28;20498;-85
2023/03/20 04:45:52;;;;;;;0.40;0.40;;;;;;;;;;4967371;28;20031;-85
2023/03/20 04:48:17;;;;;;;0.70;0.70;;;;;;;;;;4968121;28;20034;-84
2023/03/20 04:50:47;;;;;;;0.68;0.68;;;;;;;;;;4967080;28;20117;-84
2023/03/20 04:53:13;;;;;;;0.82;0.82;;;;;;;;;;4950284;28;20033;-84
2023/03/20 04:55:38;;;;;;;0.80;0.77;;;;;;;;;;4966207;28;20050;-84
2023/03/20 04:58:03;;;;;;;0.95;0.90;;;;;;;;;;4970537;28;20081;-82
2023/03/20 05:00:29;;;;;;;0.90;0.90;;;;;;;;;;4967019;28;20038;-82
2023/03/20 05:02:54;;;;;;;1.15;0.90;;;;;;;;;;4967744;28;20673;-84
2023/03/20 05:05:19;;;;;;;0.68;0.68;;;;;;;;;;4984168;28;20029;-82
2023/03/20 05:07:45;;;;;;;0.60;0.60;;;;;;;;;;4959828;28;20031;-84
2023/03/20 05:10:10;;;;;;;2.25;0.80;;;;;;;;;;4976738;28;20082;-84
2023/03/20 05:12:35;;;;;;;0.80;0.80;;;;;;;;;;4975235;28;20018;-82
2023/03/20 05:15:01;;;;;;;1.13;0.70;;;;;;;;;;4979357;28;20034;-81
2023/03/20 05:17:26;;;;;;;1.13;1.02;;;;;;;;;;4976244;28;20125;-83
2023/03/20 05:19:52;;;;;;;0.73;0.70;;;;;;;;;;4976290;28;20106;-83
2023/03/20 05:22:17;;;;;;;0.68;0.68;;;;;;;;;;4958233;28;20484;-84
2023/03/20 05:24:43;;;;;;;2.50;0.73;;;;;;;;;;4973551;28;20023;-87
2023/03/20 05:27:08;;;;;;;0.80;0.80;;;;;;;;;;4976542;28;20094;-84
2023/03/20 05:29:34;;;;;;;2.35;1.00;;;;;;;;;;4976678;28;20041;-84
2023/03/20 05:32:00;;;;;;;1.35;1.08;;;;;;;;;;4977285;28;20038;-86
2023/03/20 05:34:26;;;;;;;3.40;2.00;;;;;;;;;;4991101;28;21429;-85
2023/03/20 05:36:53;;;;;;;5.72;2.65;;;;;;;;;;4968492;28;20022;-83
2023/03/20 05:39:18;;;;;;;2.42;1.70;;;;;;;;;;4989215;28;20033;-83
2023/03/20 05:41:43;;;;;;;3.33;1.85;;;;;;;;;;4990899;28;20038;-82
2023/03/20 05:44:09;;;;;;;1.63;1.10;;;;;;;;;;4991379;28;21000;-84
2023/03/20 05:46:34;;;;;;;2.47;1.23;;;;;;;;;;4991980;28;20385;-84
2023/03/20 05:48:59;;;;;;;2.47;1.20;;;;;;;;;;4970040;28;20049;-83
2023/03/20 05:51:25;;;;;;;2.20;1.10;;;;;;;;;;4987932;28;20037;-83
2023/03/20 05:53:51;;;;;;;0.82;0.80;;;;;;;;;;4985967;28;20446;-85
2023/03/20 05:56:16;;;;;;;1.25;0.90;;;;;;;;;;4969919;28;20049;-84
2023/03/20 05:58:42;;;;;;;1.08;0.80;;;;;;;;;;4990111;28;20030;-85
2023/03/20 06:01:07;;;;;;;2.63;1.00;;;;;;;;;;4988946;28;20029;-83
2023/03/20 06:03:32;;;;;;;1.10;0.95;;;;;;;;;;4991077;28;20034;-83
2023/03/20 06:05:58;;;;;;;0.90;0.90;;;;;;;;;;4991711;28;20050;-83
2023/03/20 06:08:23;;;;;;;1.50;1.00;;;;;;;;;;4994265;28;20113;-84
2023/03/20 06:10:52;;;;;;;0.82;0.82;;;;;;;;;;4994478;28;20030;-82
2023/03/20 06:13:17;;;;;;;0.60;0.60;;;;;;;;;;4993689;28;20027;-83
2023/03/20 06:15:43;;;;;;;1.50;0.90;;;;;;;;;;4994738;28;20053;-82
2023/03/20 06:18:08;;;;;;;1.33;0.68;;;;;;;;;;4993272;28;21122;-85
2023/03/20 06:20:33;;;;;;;0.65;0.40;;;;;;;;;;4992735;28;20043;-84
2023/03/20 06:22:59;;;;;;;1.48;1.13;;;;;;;;;;4994187;28;20041;-85
2023/03/20 06:25:24;;;;;;;0.95;0.82;;;;;;;;;;4993361;28;20041;-82
2023/03/20 06:27:49;;;;;;;0.82;0.82;;;;;;;;;;4994535;28;20037;-84
2023/03/20 06:30:15;;;;;;;1.73;1.15;;;;;;;;;;4994935;28;20032;-83
2023/03/20 06:32:42;;;;;;;1.30;0.90;;;;;;;;;;4994633;28;20109;-82
2023/03/20 06:35:08;;;;;;;1.65;0.95;;;;;;;;;;4993893;28;20022;-82
2023/03/20 06:37:35;;;;;;;0.70;0.70;;;;;;;;;;4992235;28;20072;-81
2023/03/20 06:40:01;;;;;;;0.60;0.60;;;;;;;;;;4991854;28;20069;-83
2023/03/20 06:42:26;;;;;;;0.75;0.75;;;;;;;;;;4993447;28;20030;-82
2023/03/20 06:44:51;;;;;;;0.40;0.40;;;;;;;;;;4990039;28;20019;-83
2023/03/20 06:47:17;;;;;;;2.45;1.10;;;;;;;;;;4991279;28;20409;-83
2023/03/20 06:49:43;;;;;;;0.60;0.60;;;;;;;;;;4992517;28;20073;-84
2023/03/20 06:52:15;;;;;;;0.65;0.63;;;;;;;;;;4993725;28;20022;-86
2023/03/20 06:54:40;;;;;;;0.55;0.55;;;;;;;;;;4988440;28;20117;-85
2023/03/20 06:57:06;;;;;;;0.93;0.90;;;;;;;;;;4992661;28;20085;-85
2023/03/20 06:59:31;;;;;;;0.95;0.73;;;;;;;;;;4980513;28;20557;-82
2023/03/20 07:01:57;;;;;;;2.55;0.93;;;;;;;;;;4997494;28;20022;-86
2023/03/20 07:04:22;;;;;;;0.57;0.57;;;;;;;;;;4977257;28;20027;-85
2023/03/20 07:06:47;;;;;;;0.47;0.47;;;;;;;;;;4977704;28;20049;-84
2023/03/20 07:09:13;;;;;;;1.35;0.90;;;;;;;;;;4996165;28;20038;-85
2023/03/20 07:11:38;;;;;;;1.10;0.80;;;;;;;;;;4995340;28;20041;-84
2023/03/20 07:14:03;;;;;;;0.90;0.85;;;;;;;;;;4968737;28;20035;-85
2023/03/20 07:16:29;;;;;;;1.02;0.65;;;;;;;;;;4992260;28;20018;-84
2023/03/20 07:18:54;;;;;;;0.73;0.73;;;;;;;;;;4990324;28;20023;-81
2023/03/20 07:21:21;;;;;;;0.90;0.77;;;;;;;;;;4997651;28;20027;-84
2023/03/20 07:23:47;;;;;;;0.90;0.80;;;;;;;;;;5000678;28;20045;-84
2023/03/20 07:26:12;;;;;;;0.50;0.50;;;;;;;;;;4998073;28;20019;-84
2023/03/20 07:28:38;;;;;;;1.15;0.90;;;;;;;;;;4982260;28;20437;-84
2023/03/20 07:31:04;;;;;;;0.70;0.70;;;;;;;;;;4995334;28;20550;-88
2023/03/20 07:33:29;;;;;;;0.93;0.93;;;;;;;;;;4995648;28;20022;-85
2023/03/20 07:35:55;;;;;;;1.05;0.93;;;;;;;;;;4996561;28;20034;-85
2023/03/20 07:38:21;;;;;;;0.82;0.82;;;;;;;;;;4977484;28;20048;-84
2023/03/20 07:40:47;;;;;;;1.00;0.90;;;;;;;;;;4978136;28;20065;-84
2023/03/20 07:43:14;;;;;;;2.30;0.85;;;;;;;;;;4990083;28;20497;-83
2023/03/20 07:45:39;;;;;;;1.70;1.02;;;;;;;;;;4989741;28;20618;-85
2023/03/20 07:48:05;;;;;;;7.30;1.15;;;;;;;;;;4991758;28;20042;-84
2023/03/20 07:50:30;;;;;;;0.75;0.75;;;;;;;;;;4997509;28;20042;-85
2023/03/20 07:52:56;;;;;;;4.20;0.90;;;;;;;;;;4976022;28;20030;-82
2023/03/20 07:55:21;;;;;;;0.98;0.98;;;;;;;;;;4995616;28;20022;-83
2023/03/20 07:57:48;;;;;;;1.10;1.00;;;;;;;;;;4997461;28;20061;-84
2023/03/20 08:00:15;;;;;;;0.93;0.80;;;;;;;;;;4994835;28;20084;-83
2023/03/20 08:02:40;;;;;;;1.20;0.90;;;;;;;;;;4973301;28;20031;-83
2023/03/20 08:05:06;;;;;;;3.15;1.00;;;;;;;;;;4997858;28;20121;-82
2023/03/20 08:07:32;;;;;;;1.17;1.08;;;;;;;;;;5001238;28;20038;-82
2023/03/20 08:09:59;;;;;;;0.70;0.70;;;;;;;;;;4996921;28;20109;-83
2023/03/20 08:12:25;;;;;;;2.95;0.90;;;;;;;;;;4995868;28;20064;-84
2023/03/20 08:14:51;;;;;;;0.93;0.90;;;;;;;;;;4995122;28;20023;-83
2023/03/20 08:17:16;;;;;;;1.02;0.98;;;;;;;;;;4997348;28;20027;-83
2023/03/20 08:19:45;;;;;;;0.90;0.90;;;;;;;;;;4977412;28;20051;-83
2023/03/20 08:22:10;;;;;;;0.80;0.80;;;;;;;;;;4995276;28;20538;-83
2023/03/20 08:24:36;;;;;;;1.48;1.15;;;;;;;;;;4995100;28;20062;-83
2023/03/20 08:27:01;;;;;;;0.82;0.80;;;;;;;;;;4996150;28;20113;-86
2023/03/20 08:29:26;;;;;;;0.80;0.80;;;;;;;;;;4980407;28;20022;-84
2023/03/20 08:31:52;;;;;;;2.70;0.98;;;;;;;;;;5000005;28;20030;-84
2023/03/20 08:34:17;;;;;;;1.98;1.50;;;;;;;;;;4988679;28;20022;-84
2023/03/20 08:36:45;;;;;;;0.95;0.95;;;;;;;;;;5010917;28;20023;-83
2023/03/20 08:39:10;;;;;;;1.38;1.00;;;;;;;;;;4990011;28;20035;-84
2023/03/20 08:41:37;;;;;;;1.20;1.13;;;;;;;;;;5011552;28;20034;-84
2023/03/20 08:44:04;;;;;;;2.40;0.90;;;;;;;;;;5000755;28;20110;-85
2023/03/20 08:46:29;;;;;;;1.15;1.10;;;;;;;;;;4997907;28;20025;-84
2023/03/20 08:48:55;;;;;;;1.33;1.23;;;;;;;;;;5017302;28;20029;-85
2023/03/20 08:51:20;;;;;;;4.63;1.10;;;;;;;;;;4999481;28;20125;-82
2023/03/20 08:53:45;;;;;;;7.50;1.45;;;;;;;;;;5000454;28;20027;-85
2023/03/20 08:56:11;;;;;;;1.60;1.15;;;;;;;;;;4997445;28;20030;-85
2023/03/20 08:58:37;;;;;;;4.20;1.88;;;;;;;;;;4998088;28;20077;-84
2023/03/20 09:01:04;;;;;;;5.18;2.08;;;;;;;;;;4998272;28;20026;-84
2023/03/20 09:03:30;;;;;;;1.30;1.20;;;;;;;;;;4990703;28;20086;-84
2023/03/20 09:05:56;;;;;;;1.58;1.42;;;;;;;;;;4994861;28;20058;-81
2023/03/20 09:08:24;;;;;;;1.30;1.20;;;;;;;;;;4988832;28;20555;-83
2023/03/20 09:10:50;;;;;;;1.90;1.35;;;;;;;;;;4993793;28;20054;-83
2023/03/20 09:13:15;;;;;;;2.10;1.38;;;;;;;;;;4995378;28;20068;-83
2023/03/20 09:15:41;;;;;;;1.60;1.50;;;;;;;;;;4977466;28;20034;-83
2023/03/20 09:18:07;;;;;;;1.40;1.30;;;;;;;;;;4981464;28;20041;-84
2023/03/20 09:20:33;;;;;;;1.45;1.35;;;;;;;;;;4980908;28;20030;-83
2023/03/20 09:22:59;;;;;;;4.30;1.60;;;;;;;;;;4982032;28;20038;-83
2023/03/20 09:25:24;;;;;;;4.80;1.60;;;;;;;;;;4983710;28;20021;-84
2023/03/20 09:27:56;;;;;;;1.35;1.13;;;;;;;;;;5000249;28;20026;-84
2023/03/20 09:30:22;;;;;;;2.10;1.48;;;;;;;;;;5004311;28;20026;-83
2023/03/20 09:32:49;;;;;;;1.40;1.30;;;;;;;;;;5004892;28;20040;-83
2023/03/20 09:35:15;;;;;;;1.42;1.33;;;;;;;;;;5006248;28;20034;-84
2023/03/20 09:37:41;;;;;;;1.52;1.20;;;;;;;;;;4996846;28;20038;-84
2023/03/20 09:40:07;;;;;;;1.42;1.33;;;;;;;;;;4983711;28;20037;-84
2023/03/20 09:42:48;;;;;;;1.90;1.70;;;;;;;;;;5001020;28;20113;-84
2023/03/20 09:45:21;;;;;;;1.40;1.30;;;;;;;;;;4997348;28;20037;-85
2023/03/20 09:48:07;;;;;;;2.60;1.50;;;;;;;;;;5000327;28;20021;-83
2023/03/20 09:50:37;;;;;;;1.92;1.55;;;;;;;;;;4984659;28;20030;-83
2023/03/20 09:53:16;;;;;;;1.90;1.45;;;;;;;;;;4984839;28;20014;-84
2023/03/20 09:55:43;;;;;;;2.25;1.73;;;;;;;;;;4999452;28;20033;-84
2023/03/20 09:58:23;;;;;;;1.98;1.50;;;;;;;;;;5003049;28;20476;-83
2023/03/20 10:00:48;;;;;;;3.85;1.48;;;;;;;;;;5002282;28;20026;-84
2023/03/20 10:03:37;;;;;;;2.10;1.63;;;;;;;;;;5004044;28;20144;-83
2023/03/20 10:06:06;;;;;;;1.83;1.48;;;;;;;;;;5008299;28;20029;-83
2023/03/20 10:08:36;;;;;;;2.17;1.40;;;;;;;;;;5012519;28;20031;-84
2023/03/20 10:11:05;;;;;;;2.45;1.52;;;;;;;;;;5013247;28;20037;-85
2023/03/20 10:13:38;;;;;;;4.63;2.33;;;;;;;;;;5012916;28;20026;-84
2023/03/20 10:16:22;;;;;;;5.25;2.05;;;;;;;;;;5001024;28;20026;-84
2023/03/20 10:19:02;;;;;;;1.73;1.35;;;;;;;;;;5003919;28;20514;-85
2023/03/20 10:21:41;;;;;;;3.40;1.92;;;;;;;;;;4990968;28;20030;-84
2023/03/20 10:24:29;;;;;;;1.73;1.60;;;;;;;;;;5002923;28;20097;-83
2023/03/20 10:27:00;;;;;;;2.47;2.13;;;;;;;;;;4948347;28;20046;-84
2023/03/20 10:29:51;;;;;;;1.77;1.42;;;;;;;;;;5000557;28;20036;-84
2023/03/20 10:32:40;;;;;;;2.92;1.48;;;;;;;;;;5002962;28;20081;-85
2023/03/20 10:35:30;;;;;;;4.22;1.48;;;;;;;;;;4981729;28;20030;-84
2023/03/20 10:38:11;;;;;;;3.75;2.25;;;;;;;;;;4987823;28;20069;-84
2023/03/20 10:40:40;;;;;;;4.95;2.15;;;;;;;;;;4979922;28;20039;-85
2023/03/20 10:43:27;;;;;;;3.95;2.55;;;;;;;;;;4980915;28;20155;-85
2023/03/20 10:46:08;;;;;;;3.75;2.35;;;;;;;;;;4989383;28;20026;-85
2023/03/20 10:48:38;;;;;;;2.83;1.98;;;;;;;;;;4990968;28;20026;-82
2023/03/20 10:51:05;;;;;;;5.65;3.17;;;;;;;;;;4982034;28;20033;-84
2023/03/20 10:53:40;;;;;;;4.53;2.60;;;;;;;;;;4995876;28;20011;-85
2023/03/20 10:56:11;;;;;;;3.63;2.92;;;;;;;;;;4984676;28;20136;-84
2023/03/20 10:58:42;;;;;;;4.53;2.95;;;;;;;;;;4994158;28;20078;-85
2023/03/20 11:01:07;;;;;;;3.13;1.90;;;;;;;;;;4994252;28;20023;-85
2023/03/20 11:03:38;;;;;;;6.00;2.75;;;;;;;;;;4974211;28;20027;-85
2023/03/20 11:06:31;;;;;;;4.65;2.78;;;;;;;;;;4975210;28;20081;-84
2023/03/20 11:09:11;;;;;;;3.00;2.00;;;;;;;;;;4979436;28;20090;-84
2023/03/20 11:11:43;;;;;;;3.63;2.53;;;;;;;;;;4974250;28;20042;-84
2023/03/20 11:14:17;;;;;;;4.05;2.80;;;;;;;;;;4961105;28;20054;-82
2023/03/20 11:16:48;;;;;;;4.25;2.38;;;;;;;;;;4961485;28;20026;-85
2023/03/20 11:19:20;;;;;;;5.45;3.63;;;;;;;;;;4980301;28;20023;-84
2023/03/20 11:21:51;;;;;;;6.40;3.05;;;;;;;;;;4978705;28;20098;-85
2023/03/20 11:24:26;;;;;;;4.90;2.97;;;;;;;;;;4984925;28;20045;-84
2023/03/20 11:26:51;;;;;;;7.32;4.07;;;;;;;;;;4961429;28;20106;-83
2023/03/20 11:29:33;;;;;;;10.93;3.30;;;;;;;;;;4985628;28;20042;-86
2023/03/20 11:32:25;;;;;;;;;;;;;;;;;;4973901;28;20038;-84
2023/03/20 11:34:52;;;;;;;10.45;3.25;;;;;;;;;;4968326;28;19914;-85
2023/03/20 11:37:24;;;;;;;9.02;3.47;;;;;;;;;;4970531;28;20037;-80
2023/03/20 11:40:22;;;;;;;5.05;3.28;;;;;;;;;;4974096;28;20023;-83
2023/03/20 11:43:19;;;;;;;7.13;3.50;;;;;;;;;;4961199;28;20039;-85
2023/03/20 11:45:49;;;;;;;5.80;3.10;;;;;;;;;;4965451;28;20045;-87
2023/03/20 11:48:23;;;;;;;5.13;3.00;;;;;;;;;;4971731;28;20587;-86
2023/03/20 11:51:05;;;;;;;5.20;3.22;;;;;;;;;;4973646;28;20199;-85
2023/03/20 11:53:35;;;;;;;4.90;3.30;;;;;;;;;;4972159;28;20023;-85
2023/03/20 11:56:02;;;;;;;7.50;2.83;;;;;;;;;;4972870;28;20046;-86
2023/03/20 11:58:28;;;;;;;6.28;2.92;;;;;;;;;;4973578;28;20459;-83
2023/03/20 12:00:55;;;;;;;4.45;2.90;;;;;;;;;;4976255;28;20031;-85
2023/03/20 12:03:46;;;;;;;5.63;3.15;;;;;;;;;;4976063;28;20033;-83
2023/03/20 12:06:21;;;;;;;3.63;2.67;;;;;;;;;;4976032;28;20022;-85
2023/03/20 12:08:58;;;;;;;6.05;3.00;;;;;;;;;;4978409;28;20038;-85
2023/03/20 12:11:42;;;;;;;5.35;3.10;;;;;;;;;;4977784;28;20038;-85
2023/03/20 12:14:29;;;;;;;5.43;3.15;;;;;;;;;;4977749;28;20038;-84
2023/03/20 12:17:25;;;;;;;8.35;3.00;;;;;;;;;;4990132;28;20023;-84
2023/03/20 12:19:54;;;;;;;7.68;3.63;;;;;;;;;;4980168;28;20027;-84
2023/03/20 12:22:24;;;;;;;5.05;2.90;;;;;;;;;;4991624;28;20126;-84
2023/03/20 12:25:01;;;;;;;4.13;2.63;;;;;;;;;;4992556;28;20021;-84
2023/03/20 12:27:38;;;;;;;3.97;2.92;;;;;;;;;;4997036;28;20027;-85
2023/03/20 12:30:10;;;;;;;5.93;2.90;;;;;;;;;;4996091;28;20003;-86
2023/03/20 12:32:43;;;;;;;5.53;2.65;;;;;;;;;;4998635;28;20038;-85
2023/03/20 12:35:18;;;;;;;5.53;3.60;;;;;;;;;;4998698;28;20007;-85
2023/03/20 12:37:43;;;;;;;4.32;2.92;;;;;;;;;;5012979;28;20028;-85
2023/03/20 12:40:16;;;;;;;4.15;2.58;;;;;;;;;;4991265;28;20483;-85
2023/03/20 12:43:08;;;;;;;4.45;2.72;;;;;;;;;;4995379;28;20445;-85
2023/03/20 12:45:42;;;;;;;4.30;2.60;;;;;;;;;;4996017;28;20035;-85
2023/03/20 12:48:43;;;;;;;4.18;2.60;;;;;;;;;;4980549;28;20029;-85
2023/03/20 12:51:27;;;;;;;3.60;2.20;;;;;;;;;;4980688;28;20031;-85
2023/03/20 12:54:12;;;;;;;5.57;3.05;;;;;;;;;;4998291;28;20150;-85
2023/03/20 12:56:54;;;;;;;3.03;2.17;;;;;;;;;;4982898;28;20022;-85
2023/03/20 12:59:31;;;;;;;5.30;2.33;;;;;;;;;;4999037;28;20031;-88
2023/03/20 13:02:29;;;;;;;4.20;2.20;;;;;;;;;;4998951;28;20030;-87
2023/03/20 13:05:16;;;;;;;4.88;2.33;;;;;;;;;;4976243;28;20045;-80
2023/03/20 13:07:54;;;;;;;4.20;2.38;;;;;;;;;;4995893;28;20026;-85
2023/03/20 13:10:26;;;;;;;3.53;2.10;;;;;;;;;;4978039;28;20029;-86
2023/03/20 13:13:00;;;;;;;;;;;;;;;;;;4997384;28;20033;-86
2023/03/20 13:15:59;;;;;;;4.55;2.67;;;;;;;;;;5000528;28;20414;-85
2023/03/20 13:18:48;;;;;;;3.30;2.05;;;;;;;;;;5012638;28;20022;-85
2023/03/20 13:21:43;;;;;;;2.83;2.33;;;;;;;;;;5017029;28;20033;-84
2023/03/20 13:24:30;;;;;;;4.90;2.53;;;;;;;;;;4992079;28;20023;-85
2023/03/20 13:27:13;;;;;;;2.10;1.70;;;;;;;;;;5013848;28;20030;-87
2023/03/20 13:29:41;;;;;;;3.70;2.00;;;;;;;;;;4996054;28;20027;-86
2023/03/20 13:32:31;;;;;;;4.88;1.90;;;;;;;;;;4999958;28;20034;-87
2023/03/20 13:35:13;;;;;;;7.35;2.10;;;;;;;;;;4999907;28;20030;-87
2023/03/20 13:37:48;;;;;;;2.42;1.55;;;;;;;;;;4994092;28;20105;-85
2023/03/20 13:40:25;;;;;;;2.05;1.80;;;;;;;;;;4979316;28;20121;-86
2023/03/20 13:42:59;;;;;;;1.77;1.65;;;;;;;;;;4979450;28;20050;-85
2023/03/20 13:45:32;;;;;;;2.08;1.70;;;;;;;;;;4979298;28;20130;-86
2023/03/20 13:48:04;;;;;;;3.67;1.80;;;;;;;;;;4961388;28;20054;-85
2023/03/20 13:50:43;;;;;;;1.98;1.50;;;;;;;;;;4993975;28;20033;-85
2023/03/20 13:53:27;;;;;;;2.00;1.52;;;;;;;;;;4988289;28;20030;-84
2023/03/20 13:56:06;;;;;;;2.30;1.70;;;;;;;;;;4981240;28;20094;-85
2023/03/20 13:58:41;;;;;;;3.60;1.90;;;;;;;;;;4998374;28;20022;-84
2023/03/20 14:01:17;;;;;;;2.20;1.52;;;;;;;;;;4980869;28;20065;-85
2023/03/20 14:03:45;;;;;;;2.00;1.73;;;;;;;;;;4998920;28;20090;-84
2023/03/20 14:06:29;;;;;;;2.08;1.45;;;;;;;;;;4996845;28;20049;-85
2023/03/20 14:08:54;;;;;;;1.70;1.50;;;;;;;;;;4996941;28;20547;-85
2023/03/20 14:11:20;;;;;;;3.10;1.70;;;;;;;;;;4981023;28;20022;-84
2023/03/20 14:13:49;;;;;;;1.30;1.20;;;;;;;;;;4998767;28;20068;-85
2023/03/20 14:16:20;;;;;;;1.85;1.17;;;;;;;;;;4998916;28;20033;-86
2023/03/20 14:19:03;;;;;;;1.70;1.60;;;;;;;;;;4999696;28;20484;-85
2023/03/20 14:21:28;;;;;;;1.02;0.98;;;;;;;;;;4995931;28;20026;-85
2023/03/20 14:24:02;;;;;;;4.03;1.70;;;;;;;;;;4994418;28;20451;-85
2023/03/20 14:26:31;;;;;;;1.23;1.13;;;;;;;;;;4997604;28;20030;-84
2023/03/20 14:29:09;;;;;;;2.20;1.25;;;;;;;;;;4998075;28;20641;-86
2023/03/20 14:31:43;;;;;;;1.67;1.40;;;;;;;;;;4993047;28;20087;-86
2023/03/20 14:34:12;;;;;;;1.02;0.98;;;;;;;;;;4965460;28;20034;-85
2023/03/20 14:36:54;;;;;;;3.83;1.50;;;;;;;;;;4976718;28;20034;-85
2023/03/20 14:39:32;;;;;;;1.25;1.10;;;;;;;;;;4960013;28;20039;-85
2023/03/20 14:42:16;;;;;;;2.25;1.08;;;;;;;;;;4972891;28;21229;-84
2023/03/20 14:45:06;;;;;;;1.52;1.35;;;;;;;;;;4976163;28;20035;-85
2023/03/20 14:48:05;;;;;;;2.97;1.45;;;;;;;;;;4972555;28;20014;-84
2023/03/20 14:50:38;;;;;;;1.67;1.48;;;;;;;;;;4974307;28;20029;-84
2023/03/20 14:53:33;;;;;;;1.27;1.10;;;;;;;;;;4977023;28;20243;-84
2023/03/20 14:56:14;;;;;;;1.48;1.30;;;;;;;;;;4977122;28;20047;-83
2023/03/20 14:58:45;;;;;;;5.90;1.50;;;;;;;;;;4960835;28;20518;-84
2023/03/20 15:01:27;;;;;;;1.80;1.42;;;;;;;;;;4978971;28;20051;-85
2023/03/20 15:07:04;;;;;;;3.13;1.95;;;;;;;;;;4977999;28;20469;-85
2023/03/20 15:09:42;;;;;;;4.93;1.73;;;;;;;;;;4978917;28;20117;-85
2023/03/20 15:12:13;;;;;;;6.22;1.90;;;;;;;;;;4976220;28;20030;-82
2023/03/20 15:14:49;;;;;;;3.10;1.90;;;;;;;;;;4977762;28;20030;-85